Time;durP1;ratioP1;P1;durP2;ratioP2;P2;SDS_P1;SDS_P2;PMS_P1;PMS_P2;Temp;Humidity;BMP_temperature;BMP_pressure;BME280_temperature;BME280_humidity;BME280_pressure;Samples;Min_cycle;Max_cycle;Signal;HPM_P1;HPM_P2
2023/03/23 00:00:05;;;;;;;;;;;;;;;14.69;73.36;99789.03;1054220;28;1071;-65
2023/03/23 00:00:55;;;;;;;;;;;;;;;14.71;73.57;99778.16;1053617;28;642;-66
2023/03/23 00:01:46;;;;;;;;;;;;;;;14.70;73.27;99781.84;1053563;28;1142;-66
2023/03/23 00:02:37;;;;;;;;;;;;;;;14.70;73.48;99784.53;1053545;28;707;-66
2023/03/23 00:03:28;;;;;;;;;;;;;;;14.71;73.39;99781.69;1055840;28;1201;-66
2023/03/23 00:04:19;;;;;;;;;;;;;;;14.71;73.23;99783.53;1055654;28;1647;-65
2023/03/23 00:05:09;;;;;;;;;;;;;;;14.70;73.49;99782.69;1056485;28;1205;-65
2023/03/23 00:06:04;;;;;;;;;;;;;;;14.71;73.25;99791.59;1058438;28;641;-65
2023/03/23 00:06:54;;;;;;;;;;;;;;;14.70;73.17;99784.53;1055548;28;1075;-65
2023/03/23 00:07:46;;;;;;;;;;;;;;;14.69;73.38;99780.19;1056111;28;614;-66
2023/03/23 00:08:44;;;;;;;;;;;;;;;14.70;73.42;99782.69;1057363;28;678;-65
2023/03/23 00:09:40;;;;;;;;;;;;;;;14.69;73.29;99789.03;1055848;28;1178;-66
2023/03/23 00:10:32;;;;;;;;;;;;;;;14.69;72.98;99796.28;1053526;28;652;-65
2023/03/23 00:11:23;;;;;;;;;;;;;;;14.70;73.24;99787.22;1055607;28;1075;-65
2023/03/23 00:12:15;;;;;;;;;;;;;;;14.70;73.48;99793.41;1053630;28;755;-65
2023/03/23 00:13:06;;;;;;;;;;;;;;;14.71;73.23;99792.41;1053271;28;1008;-65
2023/03/23 00:13:57;;;;;;;;;;;;;;;14.70;73.40;99788.06;1056712;28;641;-65
2023/03/23 00:14:48;;;;;;;;;;;;;;;14.72;73.46;99794.13;1055600;28;1956;-65
2023/03/23 00:15:41;;;;;;;;;;;;;;;14.73;73.29;99795.81;1061799;27;715;-65
2023/03/23 00:16:31;;;;;;;;;;;;;;;14.70;73.41;99785.38;1061014;27;1193;-65
2023/03/23 00:17:23;;;;;;;;;;;;;;;14.71;73.59;99794.25;1057155;28;641;-65
2023/03/23 00:18:21;;;;;;;;;;;;;;;14.69;73.16;99789.03;1055215;28;763;-65
2023/03/23 00:19:15;;;;;;;;;;;;;;;14.69;73.36;99794.41;1056393;28;617;-65
2023/03/23 00:20:06;;;;;;;;;;;;;;;14.67;73.28;99793.75;1052707;28;1240;-65
2023/03/23 00:20:57;;;;;;;;;;;;;;;14.69;73.12;99790.91;1053160;28;626;-65
2023/03/23 00:21:47;;;;;;;;;;;;;;;14.67;73.38;99785.69;1050199;28;1092;-65
2023/03/23 00:22:38;;;;;;;;;;;;;;;14.68;73.67;99773.13;1051334;28;614;-65
2023/03/23 00:23:28;;;;;;;;;;;;;;;14.68;73.21;99773.97;1048985;28;637;-65
2023/03/23 00:24:19;;;;;;;;;;;;;;;14.67;73.61;99772.28;1049612;28;1091;-65
2023/03/23 00:25:09;;;;;;;;;;;;;;;14.68;73.65;99778.50;1056986;28;669;-65
2023/03/23 00:26:00;;;;;;;;;;;;;;;14.68;73.12;99773.13;1056178;28;1063;-65
2023/03/23 00:26:52;;;;;;;;;;;;;;;14.67;73.63;99774.97;1056283;28;648;-65
2023/03/23 00:27:43;;;;;;;;;;;;;;;14.67;73.41;99777.66;1056258;28;1011;-65
2023/03/23 00:28:34;;;;;;;;;;;;;;;14.68;73.13;99779.34;1056584;28;696;-65
2023/03/23 00:29:25;;;;;;;;;;;;;;;14.68;73.59;99784.72;1061315;27;1010;-65
2023/03/23 00:30:17;;;;;;;;;;;;;;;14.69;73.21;99785.56;1060390;27;637;-65
2023/03/23 00:31:07;;;;;;;;;;;;;;;14.67;73.50;99776.81;1057253;28;648;-65
2023/03/23 00:31:58;;;;;;;;;;;;;;;14.69;73.61;99772.97;1056421;28;1123;-65
2023/03/23 00:32:50;;;;;;;;;;;;;;;14.70;73.15;99787.22;1053536;28;633;-65
2023/03/23 00:33:41;;;;;;;;;;;;;;;14.68;73.57;99773.97;1055529;28;1154;-66
2023/03/23 00:34:32;;;;;;;;;;;;;;;14.68;73.49;99773.13;1053366;28;653;-65
2023/03/23 00:35:22;;;;;;;;;;;;;;;14.70;73.17;99773.81;1055206;28;1177;-65
2023/03/23 00:36:13;;;;;;;;;;;;;;;14.69;73.70;99770.28;1053962;28;692;-65
2023/03/23 00:37:03;;;;;;;;;;;;;;;14.70;73.27;99777.31;1051976;28;673;-65
2023/03/23 00:37:55;;;;;;;;;;;;;;;14.72;73.43;99769.97;1055659;28;647;-65
2023/03/23 00:38:46;;;;;;;;;;;;;;;14.72;73.53;99775.34;1056628;28;749;-65
2023/03/23 00:39:37;;;;;;;;;;;;;;;14.74;73.83;99767.16;1052372;28;625;-65
2023/03/23 00:40:27;;;;;;;;;;;;;;;14.74;73.47;99770.66;1053888;28;996;-65
2023/03/23 00:41:18;;;;;;;;;;;;;;;14.73;73.64;99768.97;1058228;28;625;-65
2023/03/23 00:42:08;;;;;;;;;;;;;;;14.74;73.63;99772.50;1054255;28;1735;-65
2023/03/23 00:42:59;;;;;;;;;;;;;;;14.72;73.52;99764.63;1055736;28;669;-65
2023/03/23 00:43:51;;;;;;;;;;;;;;;14.70;73.68;99763.91;1057025;28;735;-65
2023/03/23 00:44:41;;;;;;;;;;;;;;;14.71;73.70;99765.59;1056664;28;657;-65
2023/03/23 00:45:34;;;;;;;;;;;;;;;14.69;73.86;99764.91;1053623;28;729;-65
2023/03/23 00:46:25;;;;;;;;;;;;;;;14.69;73.73;99759.56;1052689;28;661;-65
2023/03/23 00:47:17;;;;;;;;;;;;;;;14.69;73.55;99770.28;1052873;28;697;-65
2023/03/23 00:48:07;;;;;;;;;;;;;;;14.70;73.45;99765.75;1051895;28;701;-65
2023/03/23 00:48:58;;;;;;;;;;;;;;;14.69;73.74;99759.56;1054239;28;1091;-65
2023/03/23 00:49:49;;;;;;;;;;;;;;;14.70;73.44;99753.19;1056090;28;650;-65
2023/03/23 00:50:40;;;;;;;;;;;;;;;14.71;73.55;99757.56;1056583;28;1110;-66
2023/03/23 00:51:30;;;;;;;;;;;;;;;14.71;73.25;99751.34;1055575;28;670;-65
2023/03/23 00:52:21;;;;;;;;;;;;;;;14.70;73.79;99750.50;1052663;28;670;-66
2023/03/23 00:53:11;;;;;;;;;;;;;;;14.71;73.66;99754.88;1054683;28;693;-66
2023/03/23 00:54:02;;;;;;;;;;;;;;;14.70;73.40;99747.81;1051362;28;637;-65
2023/03/23 00:54:52;;;;;;;;;;;;;;;14.70;73.54;99763.91;1054179;28;1894;-66
2023/03/23 00:55:43;;;;;;;;;;;;;;;14.70;73.70;99755.88;1052091;28;644;-66
2023/03/23 00:56:33;;;;;;;;;;;;;;;14.72;73.68;99743.16;1052043;28;1564;-65
2023/03/23 00:57:24;;;;;;;;;;;;;;;14.72;73.23;99743.16;1057517;28;656;-65
2023/03/23 00:58:14;;;;;;;;;;;;;;;14.72;73.52;99745.84;1056474;28;730;-65
2023/03/23 00:59:05;;;;;;;;;;;;;;;14.71;73.23;99752.19;1053272;28;597;-65
2023/03/23 00:59:55;;;;;;;;;;;;;;;14.70;73.18;99739.78;1052881;28;704;-65
2023/03/23 01:00:46;;;;;;;;;;;;;;;14.71;73.70;99746.00;1052694;28;636;-66
2023/03/23 01:01:36;;;;;;;;;;;;;;;14.70;73.48;99750.50;1056715;28;1082;-65
2023/03/23 01:02:27;;;;;;;;;;;;;;;14.70;73.64;99745.16;1055655;28;664;-66
2023/03/23 01:03:18;;;;;;;;;;;;;;;14.69;73.21;99735.41;1056615;28;1063;-66
2023/03/23 01:04:08;;;;;;;;;;;;;;;14.68;73.69;99739.13;1056957;28;641;-66
2023/03/23 01:04:58;;;;;;;;;;;;;;;14.69;73.59;99743.47;1053433;28;687;-66
2023/03/23 01:05:51;;;;;;;;;;;;;;;14.69;73.51;99743.47;1052726;28;623;-66
2023/03/23 01:06:42;;;;;;;;;;;;;;;14.71;73.58;99736.09;1053515;28;683;-65
2023/03/23 01:07:32;;;;;;;;;;;;;;;14.70;73.56;99736.25;1052349;28;646;-66
2023/03/23 01:08:23;;;;;;;;;;;;;;;14.70;73.67;99738.94;1056170;28;646;-66
2023/03/23 01:09:16;;;;;;;;;;;;;;;14.71;73.53;99748.66;1051933;28;632;-66
2023/03/23 01:10:07;;;;;;;;;;;;;;;14.71;72.94;99741.47;1054494;28;1202;-66
2023/03/23 01:10:57;;;;;;;;;;;;;;;14.70;73.61;99744.31;1055831;28;658;-66
2023/03/23 01:11:47;;;;;;;;;;;;;;;14.70;73.48;99738.94;1053311;28;652;-66
2023/03/23 01:12:38;;;;;;;;;;;;;;;14.69;73.39;99748.00;1055075;28;686;-66
2023/03/23 01:13:28;;;;;;;;;;;;;;;14.69;73.43;99745.31;1053284;28;712;-66
2023/03/23 01:14:19;;;;;;;;;;;;;;;14.68;73.51;99741.81;1056745;28;952;-66
2023/03/23 01:15:09;;;;;;;;;;;;;;;14.69;73.35;99748.00;1057469;28;1902;-66
2023/03/23 01:16:00;;;;;;;;;;;;;;;14.71;73.69;99756.72;1055335;28;1008;-66
2023/03/23 01:16:50;;;;;;;;;;;;;;;14.69;73.14;99754.19;1055893;28;630;-66
2023/03/23 01:17:41;;;;;;;;;;;;;;;14.71;73.48;99756.72;1056445;28;1028;-66
2023/03/23 01:18:31;;;;;;;;;;;;;;;14.69;73.64;99753.38;1055987;28;669;-66
2023/03/23 01:19:22;;;;;;;;;;;;;;;14.70;73.58;99749.66;1051957;28;653;-66
2023/03/23 01:20:12;;;;;;;;;;;;;;;14.68;73.38;99740.97;1052041;28;634;-66
2023/03/23 01:21:02;;;;;;;;;;;;;;;14.68;73.21;99746.31;1052745;28;625;-66
2023/03/23 01:21:53;;;;;;;;;;;;;;;14.69;73.31;99748.00;1055117;28;1151;-66
2023/03/23 01:22:43;;;;;;;;;;;;;;;14.68;73.38;99749.00;1053380;28;673;-66
2023/03/23 01:23:34;;;;;;;;;;;;;;;14.69;73.53;99737.28;1052368;28;972;-66
2023/03/23 01:24:24;;;;;;;;;;;;;;;14.69;73.33;99726.56;1055858;28;657;-66
2023/03/23 01:25:15;;;;;;;;;;;;;;;14.68;73.41;99723.03;1053690;28;672;-66
2023/03/23 01:26:06;;;;;;;;;;;;;;;14.69;73.51;99724.69;1056161;28;1679;-66
2023/03/23 01:26:57;;;;;;;;;;;;;;;14.68;73.43;99725.72;1056157;28;1138;-66
2023/03/23 01:27:47;;;;;;;;;;;;;;;14.68;73.62;99727.56;1056460;28;664;-66
2023/03/23 01:28:38;;;;;;;;;;;;;;;14.68;73.79;99722.19;1058860;27;689;-66
2023/03/23 01:29:28;;;;;;;;;;;;;;;14.69;73.59;99718.50;1060753;27;1180;-66
2023/03/23 01:30:19;;;;;;;;;;;;;;;14.67;73.37;99713.31;1056150;28;699;-66
2023/03/23 01:31:11;;;;;;;;;;;;;;;14.69;73.48;99710.47;1056112;28;1197;-66
2023/03/23 01:32:02;;;;;;;;;;;;;;;14.69;73.39;99721.19;1057676;28;757;-66
2023/03/23 01:32:52;;;;;;;;;;;;;;;14.70;73.42;99722.84;1056105;28;1178;-65
2023/03/23 01:33:43;;;;;;;;;;;;;;;14.70;73.10;99726.38;1053658;28;1068;-65
2023/03/23 01:34:33;;;;;;;;;;;;;;;14.72;73.44;99721.72;1052503;28;656;-65
2023/03/23 01:35:23;;;;;;;;;;;;;;;14.72;73.34;99710.13;1052805;28;1107;-65
2023/03/23 01:36:14;;;;;;;;;;;;;;;14.71;73.26;99706.59;1057327;28;638;-66
2023/03/23 01:37:04;;;;;;;;;;;;;;;14.71;73.36;99706.59;1054114;28;1035;-66
2023/03/23 01:37:55;;;;;;;;;;;;;;;14.71;73.61;99703.94;1055412;28;617;-66
2023/03/23 01:38:45;;;;;;;;;;;;;;;14.69;73.38;99705.91;1053823;28;684;-65
2023/03/23 01:39:36;;;;;;;;;;;;;;;14.68;73.39;99701.56;1051919;28;666;-65
2023/03/23 01:40:28;;;;;;;;;;;;;;;14.71;73.31;99701.25;1052478;28;649;-66
2023/03/23 01:41:18;;;;;;;;;;;;;;;14.71;72.96;99693.19;1054872;28;940;-65
2023/03/23 01:42:09;;;;;;;;;;;;;;;14.72;73.58;99705.63;1056350;28;618;-65
2023/03/23 01:42:59;;;;;;;;;;;;;;;14.72;73.35;99710.97;1054017;28;1610;-65
2023/03/23 01:43:50;;;;;;;;;;;;;;;14.72;73.34;99702.09;1055865;28;1146;-66
2023/03/23 01:44:40;;;;;;;;;;;;;;;14.70;73.57;99702.25;1055597;28;705;-66
2023/03/23 01:45:30;;;;;;;;;;;;;;;14.70;73.58;99696.03;1057249;28;1301;-65
2023/03/23 01:46:24;;;;;;;;;;;;;;;14.71;73.54;99703.09;1055474;28;674;-66
2023/03/23 01:47:14;;;;;;;;;;;;;;;14.70;73.48;99694.19;1056022;28;1122;-66
2023/03/23 01:48:05;;;;;;;;;;;;;;;14.69;73.76;99703.25;1053119;28;656;-66
2023/03/23 01:48:55;;;;;;;;;;;;;;;14.69;73.28;99705.09;1053230;28;665;-66
2023/03/23 01:49:46;;;;;;;;;;;;;;;14.68;73.35;99704.25;1056034;28;645;-66
2023/03/23 01:50:37;;;;;;;;;;;;;;;14.68;73.51;99712.31;1059216;27;1239;-66
2023/03/23 01:51:27;;;;;;;;;;;;;;;14.69;73.10;99711.28;1052462;28;660;-66
2023/03/23 01:52:17;;;;;;;;;;;;;;;14.69;73.31;99711.28;1057264;28;1161;-65
2023/03/23 01:53:08;;;;;;;;;;;;;;;14.70;73.47;99707.59;1057519;28;613;-65
2023/03/23 01:53:58;;;;;;;;;;;;;;;14.72;73.09;99707.44;1052869;28;680;-66
2023/03/23 01:54:49;;;;;;;;;;;;;;;14.74;73.42;99700.94;1053045;28;1893;-65
2023/03/23 01:55:40;;;;;;;;;;;;;;;14.72;73.82;99694.88;1053268;28;920;-65
2023/03/23 01:56:32;;;;;;;;;;;;;;;14.72;73.09;99700.25;1055715;28;1193;-66
2023/03/23 01:57:23;;;;;;;;;;;;;;;14.71;73.22;99695.88;1056562;28;697;-65
2023/03/23 01:58:13;;;;;;;;;;;;;;;14.72;73.60;99704.78;1056177;28;680;-65
2023/03/23 01:59:03;;;;;;;;;;;;;;;14.72;73.50;99688.69;1056158;28;1198;-65
2023/03/23 01:59:54;;;;;;;;;;;;;;;14.71;73.48;99698.56;1056088;28;693;-66
2023/03/23 02:00:44;;;;;;;;;;;;;;;14.71;73.66;99687.84;1056076;28;1305;-65
2023/03/23 02:01:38;;;;;;;;;;;;;;;14.72;73.48;99686.00;1056014;28;877;-66
2023/03/23 02:02:28;;;;;;;;;;;;;;;14.70;73.69;99683.47;1053140;28;1019;-66
2023/03/23 02:03:19;;;;;;;;;;;;;;;14.70;73.94;99680.78;1055816;28;692;-66
2023/03/23 02:04:10;;;;;;;;;;;;;;;14.71;73.33;99687.00;1054040;28;1059;-66
2023/03/23 02:05:00;;;;;;;;;;;;;;;14.72;73.09;99683.31;1055759;28;708;-66
2023/03/23 02:05:51;;;;;;;;;;;;;;;14.71;73.17;99693.19;1050114;28;1027;-66
2023/03/23 02:06:42;;;;;;;;;;;;;;;14.70;73.07;99686.16;1051787;28;653;-65
2023/03/23 02:07:32;;;;;;;;;;;;;;;14.70;73.34;99694.19;1055113;28;1071;-65
2023/03/23 02:08:23;;;;;;;;;;;;;;;14.68;73.81;99680.13;1055420;28;641;-66
2023/03/23 02:09:13;;;;;;;;;;;;;;;14.69;73.89;99689.81;1049386;28;715;-65
2023/03/23 02:10:04;;;;;;;;;;;;;;;14.69;73.54;99679.09;1052139;28;692;-65
2023/03/23 02:10:54;;;;;;;;;;;;;;;14.68;73.70;99688.19;1056754;28;649;-66
2023/03/23 02:11:45;;;;;;;;;;;;;;;14.69;73.70;99686.34;1055781;28;1153;-66
2023/03/23 02:12:35;;;;;;;;;;;;;;;14.68;73.57;99682.81;1056067;28;1938;-66
2023/03/23 02:13:26;;;;;;;;;;;;;;;14.68;73.20;99688.19;1054964;28;933;-65
2023/03/23 02:14:16;;;;;;;;;;;;;;;14.68;73.28;99672.09;1055596;28;645;-65
2023/03/23 02:15:07;;;;;;;;;;;;;;;14.69;73.07;99681.78;1055204;28;1898;-65
2023/03/23 02:15:57;;;;;;;;;;;;;;;14.69;73.14;99683.66;1055931;28;633;-65
2023/03/23 02:16:48;;;;;;;;;;;;;;;14.70;73.46;99685.31;1061216;27;1228;-66
2023/03/23 02:17:38;;;;;;;;;;;;;;;14.68;73.45;99679.28;1060697;27;613;-66
2023/03/23 02:18:28;;;;;;;;;;;;;;;14.68;73.16;99682.81;1056167;28;686;-66
2023/03/23 02:19:20;;;;;;;;;;;;;;;14.69;73.42;99687.16;1055935;28;713;-65
2023/03/23 02:20:10;;;;;;;;;;;;;;;14.70;73.33;99680.78;1056119;28;696;-66
2023/03/23 02:21:00;;;;;;;;;;;;;;;14.71;73.68;99693.19;1056130;28;699;-66
2023/03/23 02:21:51;;;;;;;;;;;;;;;14.71;73.66;99687.84;1052465;28;709;-66
2023/03/23 02:22:41;;;;;;;;;;;;;;;14.70;73.11;99686.16;1052027;28;680;-65
2023/03/23 02:23:32;;;;;;;;;;;;;;;14.70;73.36;99688.00;1052303;28;752;-65
2023/03/23 02:24:22;;;;;;;;;;;;;;;14.71;73.62;99693.19;1051765;28;639;-65
2023/03/23 02:25:13;;;;;;;;;;;;;;;14.72;73.40;99694.88;1058743;27;1087;-65
2023/03/23 02:26:06;;;;;;;;;;;;;;;14.70;73.25;99688.84;1059802;27;729;-66
2023/03/23 02:26:56;;;;;;;;;;;;;;;14.70;73.19;99688.84;1054855;28;1103;-65
2023/03/23 02:27:47;;;;;;;;;;;;;;;14.68;73.35;99684.66;1053338;28;676;-65
2023/03/23 02:28:39;;;;;;;;;;;;;;;14.67;73.28;99685.66;1055822;28;1194;-65
2023/03/23 02:29:29;;;;;;;;;;;;;;;14.68;73.95;99682.81;1056541;28;713;-65
2023/03/23 02:30:20;;;;;;;;;;;;;;;14.68;73.28;99682.81;1053955;28;1672;-65
2023/03/23 02:31:11;;;;;;;;;;;;;;;14.68;73.19;99688.19;1055142;28;1596;-65
2023/03/23 02:32:01;;;;;;;;;;;;;;;14.68;73.25;99690.84;1051898;28;669;-65
2023/03/23 02:32:53;;;;;;;;;;;;;;;14.68;73.34;99682.81;1054976;28;917;-65
2023/03/23 02:33:44;;;;;;;;;;;;;;;14.68;73.20;99688.19;1056371;28;1440;-65
2023/03/23 02:34:36;;;;;;;;;;;;;;;14.70;73.63;99691.50;1053877;28;1039;-65
2023/03/23 02:35:26;;;;;;;;;;;;;;;14.70;73.45;99696.03;1052474;28;1103;-65
2023/03/23 02:36:17;;;;;;;;;;;;;;;14.70;73.32;99682.63;1052285;28;678;-65
2023/03/23 02:37:07;;;;;;;;;;;;;;;14.69;73.04;99678.28;1052193;28;1262;-65
2023/03/23 02:37:58;;;;;;;;;;;;;;;14.69;73.14;99684.47;1053123;28;637;-65
2023/03/23 02:38:50;;;;;;;;;;;;;;;14.70;73.17;99685.31;1055141;28;1179;-65
2023/03/23 02:39:42;;;;;;;;;;;;;;;14.69;73.19;99679.09;1054027;28;700;-65
2023/03/23 02:40:32;;;;;;;;;;;;;;;14.69;73.12;99684.47;1054554;28;1192;-65
2023/03/23 02:41:22;;;;;;;;;;;;;;;14.68;73.05;99684.66;1056214;28;641;-65
2023/03/23 02:42:13;;;;;;;;;;;;;;;14.68;73.88;99685.50;1054138;28;610;-65
2023/03/23 02:43:03;;;;;;;;;;;;;;;14.68;73.55;99681.97;1055972;28;680;-65
2023/03/23 02:43:54;;;;;;;;;;;;;;;14.68;73.47;99677.44;1054792;28;695;-65
2023/03/23 02:44:44;;;;;;;;;;;;;;;14.70;73.77;99686.16;1055795;28;1134;-65
2023/03/23 02:45:35;;;;;;;;;;;;;;;14.72;73.62;99694.03;1055824;28;682;-66
2023/03/23 02:46:25;;;;;;;;;;;;;;;14.72;73.23;99689.53;1051864;28;1685;-65
2023/03/23 02:47:16;;;;;;;;;;;;;;;14.74;73.19;99678.66;1055106;28;757;-65
2023/03/23 02:48:06;;;;;;;;;;;;;;;14.73;73.28;99685.84;1055827;28;1154;-66
2023/03/23 02:48:57;;;;;;;;;;;;;;;14.74;73.29;99681.31;1055488;28;722;-66
2023/03/23 02:49:47;;;;;;;;;;;;;;;14.74;72.96;99692.91;1055436;28;1174;-66
2023/03/23 02:50:37;;;;;;;;;;;;;;;14.73;73.34;99685.84;1053178;28;715;-66
2023/03/23 02:51:28;;;;;;;;;;;;;;;14.74;73.30;99694.75;1052892;28;649;-66
2023/03/23 02:52:19;;;;;;;;;;;;;;;14.75;73.40;99699.94;1051460;28;680;-66
2023/03/23 02:53:09;;;;;;;;;;;;;;;14.74;73.22;99687.53;1053452;28;1111;-66
2023/03/23 02:54:00;;;;;;;;;;;;;;;14.74;73.22;99687.53;1049099;28;672;-66
2023/03/23 02:54:50;;;;;;;;;;;;;;;14.73;73.12;99680.47;1048598;28;1889;-66
2023/03/23 02:55:41;;;;;;;;;;;;;;;14.71;73.46;99682.47;1056395;28;751;-65
2023/03/23 02:56:32;;;;;;;;;;;;;;;14.71;73.45;99678.94;1055752;28;1130;-66
2023/03/23 02:57:23;;;;;;;;;;;;;;;14.71;73.14;99671.75;1055233;28;716;-66
2023/03/23 02:58:13;;;;;;;;;;;;;;;14.73;73.32;99669.75;1055322;28;925;-66
2023/03/23 02:59:03;;;;;;;;;;;;;;;14.75;73.04;99673.13;1055666;28;723;-66
2023/03/23 02:59:54;;;;;;;;;;;;;;;14.75;73.24;99681.19;1055221;28;767;-66
2023/03/23 03:00:49;;;;;;;;;;;;;;;14.74;73.18;99674.13;1055429;28;1734;-66
2023/03/23 03:01:39;;;;;;;;;;;;;;;14.74;72.82;99674.13;1055456;28;701;-66
2023/03/23 03:02:30;;;;;;;;;;;;;;;14.74;73.10;99668.75;1055940;28;1130;-66
2023/03/23 03:03:20;;;;;;;;;;;;;;;14.74;73.02;99676.81;1055262;28;750;-66
2023/03/23 03:04:12;;;;;;;;;;;;;;;14.73;73.02;99674.28;1051643;28;645;-65
2023/03/23 03:05:03;;;;;;;;;;;;;;;14.72;72.79;99673.44;1054279;28;1099;-66
2023/03/23 03:05:54;;;;;;;;;;;;;;;14.75;73.19;99674.97;1056709;28;693;-66
2023/03/23 03:06:48;;;;;;;;;;;;;;;14.74;73.22;99679.50;1053102;28;677;-66
2023/03/23 03:07:38;;;;;;;;;;;;;;;14.75;73.11;99686.53;1053930;28;1123;-65
2023/03/23 03:08:29;;;;;;;;;;;;;;;14.75;72.90;99683.84;1053546;28;712;-65
2023/03/23 03:09:20;;;;;;;;;;;;;;;14.74;73.08;99674.13;1055286;28;1147;-66
2023/03/23 03:10:11;;;;;;;;;;;;;;;14.76;72.81;99680.19;1055843;28;665;-66
2023/03/23 03:11:02;;;;;;;;;;;;;;;14.75;72.93;99673.13;1052594;28;732;-65
2023/03/23 03:11:52;;;;;;;;;;;;;;;14.75;72.70;99691.91;1055923;28;653;-66
2023/03/23 03:12:42;;;;;;;;;;;;;;;14.76;72.94;99682.03;1051807;28;700;-65
2023/03/23 03:13:33;;;;;;;;;;;;;;;14.76;72.95;99674.81;1053053;28;1083;-66
2023/03/23 03:14:24;;;;;;;;;;;;;;;14.75;72.78;99683.84;1057234;28;730;-65
2023/03/23 03:15:14;;;;;;;;;;;;;;;14.75;72.87;99674.97;1055741;28;1882;-65
2023/03/23 03:16:04;;;;;;;;;;;;;;;14.75;72.83;99673.13;1057730;28;727;-66
2023/03/23 03:16:55;;;;;;;;;;;;;;;14.75;72.63;99667.75;1059857;28;1222;-65
2023/03/23 03:17:46;;;;;;;;;;;;;;;14.74;72.78;99679.50;1056300;28;711;-65
2023/03/23 03:18:36;;;;;;;;;;;;;;;14.73;72.84;99674.28;1055172;28;1277;-65
2023/03/23 03:19:27;;;;;;;;;;;;;;;14.72;73.31;99673.44;1053273;28;1003;-65
2023/03/23 03:20:18;;;;;;;;;;;;;;;14.72;73.19;99672.59;1056713;28;789;-65
2023/03/23 03:21:10;;;;;;;;;;;;;;;14.74;72.83;99670.59;1051248;28;1056;-65
2023/03/23 03:22:00;;;;;;;;;;;;;;;14.73;72.67;99677.81;1051573;28;677;-65
2023/03/23 03:22:52;;;;;;;;;;;;;;;14.74;73.04;99655.34;1055824;28;633;-65
2023/03/23 03:23:43;;;;;;;;;;;;;;;14.73;72.87;99664.41;1056163;28;709;-66
2023/03/23 03:24:33;;;;;;;;;;;;;;;14.73;73.05;99659.03;1055800;28;1247;-65
2023/03/23 03:25:23;;;;;;;;;;;;;;;14.74;72.93;99655.34;1055269;28;1063;-65
2023/03/23 03:26:17;;;;;;;;;;;;;;;14.73;72.68;99664.41;1056335;28;704;-66
2023/03/23 03:27:07;;;;;;;;;;;;;;;14.75;72.73;99659.72;1054023;28;945;-66
2023/03/23 03:27:58;;;;;;;;;;;;;;;14.73;72.87;99666.22;1055660;28;618;-65
2023/03/23 03:28:49;;;;;;;;;;;;;;;14.76;72.91;99653.38;1056612;28;712;-65
2023/03/23 03:29:41;;;;;;;;;;;;;;;14.75;72.77;99662.41;1051637;28;669;-65
2023/03/23 03:30:31;;;;;;;;;;;;;;;14.76;72.84;99656.03;1055228;28;1608;-65
2023/03/23 03:31:21;;;;;;;;;;;;;;;14.76;72.84;99658.72;1055554;28;625;-65
2023/03/23 03:32:12;;;;;;;;;;;;;;;14.75;72.80;99653.50;1052844;28;626;-65
2023/03/23 03:33:02;;;;;;;;;;;;;;;14.74;72.76;99655.34;1052165;28;637;-65
2023/03/23 03:33:53;;;;;;;;;;;;;;;14.75;73.02;99661.56;1051294;28;1138;-65
2023/03/23 03:34:43;;;;;;;;;;;;;;;14.74;72.73;99658.03;1055351;28;602;-65
2023/03/23 03:35:34;;;;;;;;;;;;;;;14.75;72.87;99662.41;1055746;28;1142;-65
2023/03/23 03:36:25;;;;;;;;;;;;;;;14.74;73.37;99666.09;1055130;28;1155;-65
2023/03/23 03:37:15;;;;;;;;;;;;;;;14.75;72.95;99667.75;1053460;28;676;-65
2023/03/23 03:38:07;;;;;;;;;;;;;;;14.74;72.61;99652.66;1057185;28;713;-65
2023/03/23 03:38:59;;;;;;;;;;;;;;;14.73;72.74;99655.50;1053661;28;530;-65
2023/03/23 03:39:50;;;;;;;;;;;;;;;14.73;72.48;99653.66;1054152;28;701;-65
2023/03/23 03:40:41;;;;;;;;;;;;;;;14.73;72.65;99666.22;1058106;27;1175;-65
2023/03/23 03:41:31;;;;;;;;;;;;;;;14.72;72.69;99649.28;1054734;28;625;-65
2023/03/23 03:42:22;;;;;;;;;;;;;;;14.71;72.91;99647.63;1056671;28;708;-66
2023/03/23 03:43:12;;;;;;;;;;;;;;;14.72;72.92;99657.34;1052306;28;701;-65
2023/03/23 03:44:02;;;;;;;;;;;;;;;14.73;72.64;99652.81;1052570;28;620;-65
2023/03/23 03:44:53;;;;;;;;;;;;;;;14.72;72.69;99646.63;1054792;28;1434;-65
2023/03/23 03:45:44;;;;;;;;;;;;;;;14.73;72.41;99651.00;1051905;28;713;-65
2023/03/23 03:46:34;;;;;;;;;;;;;;;14.73;72.74;99645.63;1052845;28;1031;-65
2023/03/23 03:47:25;;;;;;;;;;;;;;;14.73;72.91;99647.47;1057133;28;618;-65
2023/03/23 03:48:16;;;;;;;;;;;;;;;14.72;72.47;99651.97;1054829;28;619;-65
2023/03/23 03:49:06;;;;;;;;;;;;;;;14.73;72.69;99669.75;1052521;28;653;-65
2023/03/23 03:49:57;;;;;;;;;;;;;;;14.73;72.46;99683.16;1060404;27;752;-65
2023/03/23 03:50:47;;;;;;;;;;;;;;;14.72;72.61;99681.47;1060597;27;621;-65
2023/03/23 03:51:38;;;;;;;;;;;;;;;14.72;72.38;99689.53;1057814;28;1216;-65
2023/03/23 03:52:28;;;;;;;;;;;;;;;14.72;72.71;99691.38;1056461;28;1142;-66
2023/03/23 03:53:19;;;;;;;;;;;;;;;14.72;72.84;99692.22;1054730;28;660;-65
2023/03/23 03:54:10;;;;;;;;;;;;;;;14.72;72.49;99702.94;1052661;28;1151;-66
2023/03/23 03:55:00;;;;;;;;;;;;;;;14.73;72.86;99685.00;1053666;28;1951;-66
2023/03/23 03:55:55;;;;;;;;;;;;;;;14.73;72.62;99695.72;1056891;28;1190;-66
2023/03/23 03:56:45;;;;;;;;;;;;;;;14.73;72.53;99690.38;1056017;28;613;-66
2023/03/23 03:57:36;;;;;;;;;;;;;;;14.71;72.71;99685.16;1055477;28;656;-66
2023/03/23 03:58:35;;;;;;;;;;;;;;;14.72;72.27;99686.84;1056381;28;1098;-66
2023/03/23 03:59:27;;;;;;;;;;;;;;;14.72;72.65;99691.38;1057053;28;674;-66
2023/03/23 04:00:18;;;;;;;;;;;;;;;14.72;72.61;99677.94;1055190;28;1043;-66
2023/03/23 04:01:09;;;;;;;;;;;;;;;14.71;72.49;99674.44;1053509;28;637;-66
2023/03/23 04:02:00;;;;;;;;;;;;;;;14.72;72.78;99677.94;1052718;28;1150;-67
2023/03/23 04:02:53;;;;;;;;;;;;;;;14.72;72.64;99678.78;1053633;28;705;-66
2023/03/23 04:03:44;;;;;;;;;;;;;;;14.72;72.13;99678.78;1054134;28;633;-67
2023/03/23 04:04:34;;;;;;;;;;;;;;;14.73;72.40;99693.88;1052485;28;685;-66
2023/03/23 04:05:25;;;;;;;;;;;;;;;14.73;72.08;99690.38;1053466;28;1029;-66
2023/03/23 04:06:15;;;;;;;;;;;;;;;14.72;72.49;99681.47;1056445;28;673;-67
2023/03/23 04:07:06;;;;;;;;;;;;;;;14.72;72.56;99689.53;1055525;28;972;-67
2023/03/23 04:08:01;;;;;;;;;;;;;;;14.72;72.40;99694.88;1056033;28;646;-67
2023/03/23 04:08:52;;;;;;;;;;;;;;;14.70;72.60;99688.00;1056489;28;701;-66
2023/03/23 04:09:43;;;;;;;;;;;;;;;14.71;72.18;99687.00;1056178;28;1190;-66
2023/03/23 04:10:33;;;;;;;;;;;;;;;14.69;72.38;99689.00;1057117;28;682;-66
2023/03/23 04:11:24;;;;;;;;;;;;;;;14.68;72.82;99690.84;1056623;28;637;-65
2023/03/23 04:12:14;;;;;;;;;;;;;;;14.68;72.52;99692.69;1052825;28;741;-66
2023/03/23 04:13:05;;;;;;;;;;;;;;;14.67;72.33;99686.47;1052958;28;681;-66
2023/03/23 04:13:55;;;;;;;;;;;;;;;14.68;72.76;99690.84;1052987;28;692;-66
2023/03/23 04:14:46;;;;;;;;;;;;;;;14.67;72.49;99697.22;1052915;28;1810;-66
2023/03/23 04:15:38;;;;;;;;;;;;;;;14.67;72.40;99689.16;1056596;28;1075;-66
2023/03/23 04:16:29;;;;;;;;;;;;;;;14.68;72.81;99687.31;1053282;28;621;-67
2023/03/23 04:17:20;;;;;;;;;;;;;;;14.68;72.37;99695.38;1052087;28;697;-67
2023/03/23 04:18:11;;;;;;;;;;;;;;;14.66;72.79;99683.97;1056393;28;634;-67
2023/03/23 04:19:01;;;;;;;;;;;;;;;14.67;72.58;99713.31;1056690;28;634;-66
2023/03/23 04:19:52;;;;;;;;;;;;;;;14.67;72.23;99689.16;1053755;28;784;-67
2023/03/23 04:20:44;;;;;;;;;;;;;;;14.67;72.39;99691.84;1049037;28;641;-67
2023/03/23 04:21:34;;;;;;;;;;;;;;;14.66;72.80;99689.31;1056095;28;1142;-67
2023/03/23 04:22:29;;;;;;;;;;;;;;;14.65;72.46;99674.22;1056250;28;759;-67
2023/03/23 04:23:21;;;;;;;;;;;;;;;14.66;72.30;99684.81;1055866;28;1119;-66
2023/03/23 04:24:12;;;;;;;;;;;;;;;14.66;72.69;99667.88;1056654;28;716;-67
2023/03/23 04:25:05;;;;;;;;;;;;;;;14.67;72.34;99685.66;1054606;28;1007;-67
2023/03/23 04:25:57;;;;;;;;;;;;;;;14.65;72.14;99675.06;1057018;28;1122;-67
2023/03/23 04:26:48;;;;;;;;;;;;;;;14.66;72.62;99679.44;1050101;28;668;-66
2023/03/23 04:27:38;;;;;;;;;;;;;;;14.66;72.52;99678.59;1049177;28;1159;-66
2023/03/23 04:28:29;;;;;;;;;;;;;;;14.66;72.27;99676.75;1054074;28;712;-66
2023/03/23 04:29:19;;;;;;;;;;;;;;;14.67;72.34;99691.00;1051166;28;1691;-66
2023/03/23 04:30:10;;;;;;;;;;;;;;;14.66;72.26;99687.47;1052464;28;688;-66